sensor_id;sensor_type;location;lat;lon;timestamp;pressure;altitude;pressure_sealevel;temperature;humidity
3444;BME280;1736;52.068;6.968;2022-11-15T00:01:19;100431.75;;;8.42;95.69
3444;BME280;1736;52.068;6.968;2022-11-15T00:03:45;100438.97;;;8.40;95.77
3444;BME280;1736;52.068;6.968;2022-11-15T00:06:12;100435.00;;;8.34;95.95
3444;BME280;1736;52.068;6.968;2022-11-15T00:08:39;100422.50;;;8.36;95.86
3444;BME280;1736;52.068;6.968;2022-11-15T00:11:05;100432.59;;;8.42;95.86
3444;BME280;1736;52.068;6.968;2022-11-15T00:13:32;100438.38;;;8.36;96.17
3444;BME280;1736;52.068;6.968;2022-11-15T00:16:00;100434.03;;;8.35;96.67
3444;BME280;1736;52.068;6.968;2022-11-15T00:18:29;100425.41;;;8.44;97.91
3444;BME280;1736;52.068;6.968;2022-11-15T00:20:55;100425.16;;;8.36;98.87
3444;BME280;1736;52.068;6.968;2022-11-15T00:23:22;100422.00;;;8.31;100.00
3444;BME280;1736;52.068;6.968;2022-11-15T00:25:55;100412.63;;;8.27;100.00
3444;BME280;1736;52.068;6.968;2022-11-15T00:28:22;100403.03;;;8.26;100.00
3444;BME280;1736;52.068;6.968;2022-11-15T00:30:49;100402.06;;;8.27;100.00
3444;BME280;1736;52.068;6.968;2022-11-15T00:33:15;100403.88;;;8.27;100.00
3444;BME280;1736;52.068;6.968;2022-11-15T00:35:43;100406.53;;;8.27;100.00
3444;BME280;1736;52.068;6.968;2022-11-15T00:38:09;100403.78;;;8.28;100.00
3444;BME280;1736;52.068;6.968;2022-11-15T00:40:36;100400.75;;;8.33;100.00
3444;BME280;1736;52.068;6.968;2022-11-15T00:43:03;100407.13;;;8.30;100.00
3444;BME280;1736;52.068;6.968;2022-11-15T00:45:29;100407.00;;;8.43;100.00
3444;BME280;1736;52.068;6.968;2022-11-15T00:47:56;100405.91;;;8.45;100.00
3444;BME280;1736;52.068;6.968;2022-11-15T00:50:22;100410.47;;;8.43;100.00
3444;BME280;1736;52.068;6.968;2022-11-15T00:52:50;100402.81;;;8.40;100.00
3444;BME280;1736;52.068;6.968;2022-11-15T00:55:17;100399.44;;;8.38;100.00
3444;BME280;1736;52.068;6.968;2022-11-15T00:57:45;100393.91;;;8.41;100.00
3444;BME280;1736;52.068;6.968;2022-11-15T01:00:13;100389.44;;;8.42;100.00
3444;BME280;1736;52.068;6.968;2022-11-15T01:02:40;100391.50;;;8.49;100.00
3444;BME280;1736;52.068;6.968;2022-11-15T01:05:07;100391.84;;;8.56;100.00
3444;BME280;1736;52.068;6.968;2022-11-15T01:07:34;100386.22;;;8.49;100.00
3444;BME280;1736;52.068;6.968;2022-11-15T01:10:02;100380.81;;;8.51;100.00
3444;BME280;1736;52.068;6.968;2022-11-15T01:12:29;100373.94;;;8.48;100.00
3444;BME280;1736;52.068;6.968;2022-11-15T01:14:55;100373.22;;;8.46;100.00
3444;BME280;1736;52.068;6.968;2022-11-15T01:17:22;100374.41;;;8.53;100.00
3444;BME280;1736;52.068;6.968;2022-11-15T01:19:49;100374.66;;;8.50;100.00
3444;BME280;1736;52.068;6.968;2022-11-15T01:22:15;100373.44;;;8.54;100.00
3444;BME280;1736;52.068;6.968;2022-11-15T01:24:42;100359.47;;;8.63;100.00
3444;BME280;1736;52.068;6.968;2022-11-15T01:27:10;100351.31;;;8.66;100.00
3444;BME280;1736;52.068;6.968;2022-11-15T01:29:36;100359.59;;;8.62;100.00
3444;BME280;1736;52.068;6.968;2022-11-15T01:32:03;100358.78;;;8.61;100.00
3444;BME280;1736;52.068;6.968;2022-11-15T01:34:30;100348.19;;;8.61;100.00
3444;BME280;1736;52.068;6.968;2022-11-15T01:36:56;100350.09;;;8.70;100.00
3444;BME280;1736;52.068;6.968;2022-11-15T01:39:23;100347.69;;;8.67;100.00
3444;BME280;1736;52.068;6.968;2022-11-15T01:41:50;100348.16;;;8.72;100.00
3444;BME280;1736;52.068;6.968;2022-11-15T01:44:42;100350.56;;;8.75;100.00
3444;BME280;1736;52.068;6.968;2022-11-15T01:47:13;100352.22;;;8.76;100.00
3444;BME280;1736;52.068;6.968;2022-11-15T01:49:46;100350.31;;;8.78;100.00
3444;BME280;1736;52.068;6.968;2022-11-15T01:52:18;100348.25;;;8.82;100.00
3444;BME280;1736;52.068;6.968;2022-11-15T01:54:46;100344.25;;;8.87;100.00
3444;BME280;1736;52.068;6.968;2022-11-15T01:57:13;100341.72;;;8.86;100.00
3444;BME280;1736;52.068;6.968;2022-11-15T01:59:43;100349.78;;;8.84;100.00
3444;BME280;1736;52.068;6.968;2022-11-15T02:02:11;100353.66;;;8.80;100.00
3444;BME280;1736;52.068;6.968;2022-11-15T02:04:40;100337.28;;;8.86;100.00
3444;BME280;1736;52.068;6.968;2022-11-15T02:07:09;100341.38;;;8.90;100.00
3444;BME280;1736;52.068;6.968;2022-11-15T02:09:37;100343.28;;;8.88;100.00
3444;BME280;1736;52.068;6.968;2022-11-15T02:12:05;100341.50;;;8.89;100.00
3444;BME280;1736;52.068;6.968;2022-11-15T02:14:34;100333.44;;;8.90;100.00
3444;BME280;1736;52.068;6.968;2022-11-15T02:17:13;100340.28;;;8.93;100.00
3444;BME280;1736;52.068;6.968;2022-11-15T02:20:06;100328.09;;;9.01;100.00
3444;BME280;1736;52.068;6.968;2022-11-15T02:22:40;100315.94;;;8.99;100.00
3444;BME280;1736;52.068;6.968;2022-11-15T02:25:23;100316.53;;;9.02;100.00
3444;BME280;1736;52.068;6.968;2022-11-15T02:28:20;100308.59;;;9.02;100.00
3444;BME280;1736;52.068;6.968;2022-11-15T02:30:54;100309.50;;;9.12;100.00
3444;BME280;1736;52.068;6.968;2022-11-15T02:33:32;100305.19;;;9.11;100.00
3444;BME280;1736;52.068;6.968;2022-11-15T02:36:05;100309.06;;;9.07;100.00
3444;BME280;1736;52.068;6.968;2022-11-15T02:38:38;100302.09;;;9.06;100.00
3444;BME280;1736;52.068;6.968;2022-11-15T02:41:10;100304.34;;;9.11;100.00
3444;BME280;1736;52.068;6.968;2022-11-15T02:43:45;100303.25;;;9.13;100.00
3444;BME280;1736;52.068;6.968;2022-11-15T02:46:28;100298.28;;;9.20;100.00
3444;BME280;1736;52.068;6.968;2022-11-15T02:49:15;100304.81;;;9.16;100.00
3444;BME280;1736;52.068;6.968;2022-11-15T02:51:44;100304.94;;;9.14;100.00
3444;BME280;1736;52.068;6.968;2022-11-15T02:54:13;100299.97;;;9.21;100.00
3444;BME280;1736;52.068;6.968;2022-11-15T02:56:40;100288.53;;;9.20;100.00
3444;BME280;1736;52.068;6.968;2022-11-15T02:59:20;100298.00;;;9.23;100.00
3444;BME280;1736;52.068;6.968;2022-11-15T03:02:02;100297.19;;;9.22;100.00
3444;BME280;1736;52.068;6.968;2022-11-15T03:04:37;100291.91;;;9.22;100.00
3444;BME280;1736;52.068;6.968;2022-11-15T03:07:11;100294.41;;;9.24;100.00
3444;BME280;1736;52.068;6.968;2022-11-15T03:09:42;100294.00;;;9.28;100.00
3444;BME280;1736;52.068;6.968;2022-11-15T03:12:14;100296.16;;;9.34;100.00
3444;BME280;1736;52.068;6.968;2022-11-15T03:14:53;100296.41;;;9.31;100.00
3444;BME280;1736;52.068;6.968;2022-11-15T03:17:25;100292.78;;;9.32;100.00
3444;BME280;1736;52.068;6.968;2022-11-15T03:19:56;100298.94;;;9.33;100.00
3444;BME280;1736;52.068;6.968;2022-11-15T03:22:27;100301.47;;;9.34;100.00
3444;BME280;1736;52.068;6.968;2022-11-15T03:25:00;100302.75;;;9.40;100.00
3444;BME280;1736;52.068;6.968;2022-11-15T03:27:30;100306.81;;;9.44;100.00
3444;BME280;1736;52.068;6.968;2022-11-15T03:30:02;100298.03;;;9.43;100.00
3444;BME280;1736;52.068;6.968;2022-11-15T03:32:32;100298.47;;;9.48;100.00
3444;BME280;1736;52.068;6.968;2022-11-15T03:35:04;100301.97;;;9.49;100.00
3444;BME280;1736;52.068;6.968;2022-11-15T03:37:35;100291.25;;;9.50;100.00
3444;BME280;1736;52.068;6.968;2022-11-15T03:40:04;100290.25;;;9.51;100.00
3444;BME280;1736;52.068;6.968;2022-11-15T03:42:34;100293.03;;;9.70;100.00
3444;BME280;1736;52.068;6.968;2022-11-15T03:45:07;100291.44;;;9.68;100.00
3444;BME280;1736;52.068;6.968;2022-11-15T03:47:40;100293.97;;;9.69;100.00
3444;BME280;1736;52.068;6.968;2022-11-15T03:50:12;100294.16;;;9.77;100.00
3444;BME280;1736;52.068;6.968;2022-11-15T03:52:40;100287.34;;;9.84;100.00
3444;BME280;1736;52.068;6.968;2022-11-15T03:55:09;100296.47;;;9.91;100.00
3444;BME280;1736;52.068;6.968;2022-11-15T03:57:37;100286.56;;;9.93;100.00
3444;BME280;1736;52.068;6.968;2022-11-15T04:00:05;100292.28;;;9.98;100.00
3444;BME280;1736;52.068;6.968;2022-11-15T04:02:31;100285.06;;;10.00;100.00
3444;BME280;1736;52.068;6.968;2022-11-15T04:04:59;100286.72;;;10.01;100.00
3444;BME280;1736;52.068;6.968;2022-11-15T04:07:26;100284.28;;;10.09;100.00
3444;BME280;1736;52.068;6.968;2022-11-15T04:09:52;100284.28;;;10.09;100.00
3444;BME280;1736;52.068;6.968;2022-11-15T04:12:28;100278.97;;;10.09;100.00
3444;BME280;1736;52.068;6.968;2022-11-15T04:14:58;100285.69;;;10.13;100.00
3444;BME280;1736;52.068;6.968;2022-11-15T04:17:38;100280.81;;;10.18;100.00
3444;BME280;1736;52.068;6.968;2022-11-15T04:20:09;100277.38;;;10.27;100.00
3444;BME280;1736;52.068;6.968;2022-11-15T04:22:55;100281.25;;;10.33;100.00
3444;BME280;1736;52.068;6.968;2022-11-15T04:25:40;100280.69;;;10.29;100.00
3444;BME280;1736;52.068;6.968;2022-11-15T04:28:07;100282.66;;;10.27;100.00
3444;BME280;1736;52.068;6.968;2022-11-15T04:30:33;100291.03;;;10.32;100.00
3444;BME280;1736;52.068;6.968;2022-11-15T04:33:00;100285.03;;;10.30;100.00
3444;BME280;1736;52.068;6.968;2022-11-15T04:35:28;100294.38;;;10.34;100.00
3444;BME280;1736;52.068;6.968;2022-11-15T04:37:56;100290.06;;;10.33;100.00
3444;BME280;1736;52.068;6.968;2022-11-15T04:40:21;100292.97;;;10.30;100.00
3444;BME280;1736;52.068;6.968;2022-11-15T04:42:48;100285.47;;;10.35;100.00
3444;BME280;1736;52.068;6.968;2022-11-15T04:45:15;100278.47;;;10.34;100.00
3444;BME280;1736;52.068;6.968;2022-11-15T04:47:43;100284.75;;;10.33;100.00
3444;BME280;1736;52.068;6.968;2022-11-15T04:50:09;100291.88;;;10.33;100.00
3444;BME280;1736;52.068;6.968;2022-11-15T04:52:39;100279.06;;;10.38;100.00
3444;BME280;1736;52.068;6.968;2022-11-15T04:55:06;100290.50;;;10.48;100.00
3444;BME280;1736;52.068;6.968;2022-11-15T04:57:33;100293.28;;;10.46;100.00
3444;BME280;1736;52.068;6.968;2022-11-15T05:00:00;100289.13;;;10.53;100.00
3444;BME280;1736;52.068;6.968;2022-11-15T05:02:26;100291.50;;;10.57;100.00
3444;BME280;1736;52.068;6.968;2022-11-15T05:05:13;100291.66;;;10.55;100.00
3444;BME280;1736;52.068;6.968;2022-11-15T05:07:40;100285.50;;;10.64;100.00
3444;BME280;1736;52.068;6.968;2022-11-15T05:10:07;100289.97;;;10.63;100.00
3444;BME280;1736;52.068;6.968;2022-11-15T05:12:34;100290.53;;;10.57;100.00
3444;BME280;1736;52.068;6.968;2022-11-15T05:15:01;100290.25;;;10.61;100.00
3444;BME280;1736;52.068;6.968;2022-11-15T05:17:28;100299.31;;;10.48;100.00
3444;BME280;1736;52.068;6.968;2022-11-15T05:19:54;100290.78;;;10.45;100.00
3444;BME280;1736;52.068;6.968;2022-11-15T05:22:21;100286.47;;;10.44;100.00
3444;BME280;1736;52.068;6.968;2022-11-15T05:24:49;100292.44;;;10.36;100.00
3444;BME280;1736;52.068;6.968;2022-11-15T05:27:16;100283.94;;;10.42;100.00
3444;BME280;1736;52.068;6.968;2022-11-15T05:29:42;100281.03;;;10.45;100.00
3444;BME280;1736;52.068;6.968;2022-11-15T05:32:09;100278.63;;;10.42;100.00
3444;BME280;1736;52.068;6.968;2022-11-15T05:34:37;100266.22;;;10.43;100.00
3444;BME280;1736;52.068;6.968;2022-11-15T05:37:04;100267.59;;;10.37;100.00
3444;BME280;1736;52.068;6.968;2022-11-15T05:39:31;100276.81;;;10.33;100.00
3444;BME280;1736;52.068;6.968;2022-11-15T05:42:02;100270.25;;;10.37;100.00
3444;BME280;1736;52.068;6.968;2022-11-15T05:44:31;100279.63;;;10.41;100.00
3444;BME280;1736;52.068;6.968;2022-11-15T05:46:58;100270.41;;;10.45;100.00
3444;BME280;1736;52.068;6.968;2022-11-15T05:49:29;100278.06;;;10.39;100.00
3444;BME280;1736;52.068;6.968;2022-11-15T05:51:56;100275.16;;;10.42;100.00
3444;BME280;1736;52.068;6.968;2022-11-15T05:54:24;100276.53;;;10.36;100.00
3444;BME280;1736;52.068;6.968;2022-11-15T05:56:52;100277.19;;;10.29;100.00
3444;BME280;1736;52.068;6.968;2022-11-15T05:59:20;100277.66;;;10.34;100.00
3444;BME280;1736;52.068;6.968;2022-11-15T06:01:47;100274.16;;;10.33;100.00
3444;BME280;1736;52.068;6.968;2022-11-15T06:04:13;100270.66;;;10.33;100.00
3444;BME280;1736;52.068;6.968;2022-11-15T06:06:40;100276.81;;;10.33;100.00
3444;BME280;1736;52.068;6.968;2022-11-15T06:09:07;100275.41;;;10.29;100.00
3444;BME280;1736;52.068;6.968;2022-11-15T06:11:33;100279.84;;;10.29;100.00
3444;BME280;1736;52.068;6.968;2022-11-15T06:14:00;100280.44;;;10.32;100.00
3444;BME280;1736;52.068;6.968;2022-11-15T06:16:28;100286.00;;;10.29;100.00
3444;BME280;1736;52.068;6.968;2022-11-15T06:18:54;100283.63;;;10.26;100.00
3444;BME280;1736;52.068;6.968;2022-11-15T06:21:21;100282.09;;;10.24;100.00
3444;BME280;1736;52.068;6.968;2022-11-15T06:23:47;100285.44;;;10.26;100.00
3444;BME280;1736;52.068;6.968;2022-11-15T06:26:14;100281.81;;;10.27;100.00
3444;BME280;1736;52.068;6.968;2022-11-15T06:28:40;100286.28;;;10.26;100.00
3444;BME280;1736;52.068;6.968;2022-11-15T06:31:09;100286.44;;;10.25;100.00
3444;BME280;1736;52.068;6.968;2022-11-15T06:33:37;100290.63;;;10.27;100.00
3444;BME280;1736;52.068;6.968;2022-11-15T06:36:06;100292.41;;;10.27;100.00
3444;BME280;1736;52.068;6.968;2022-11-15T06:38:34;100291.56;;;10.26;100.00
3444;BME280;1736;52.068;6.968;2022-11-15T06:41:01;100289.22;;;10.23;100.00
3444;BME280;1736;52.068;6.968;2022-11-15T06:43:28;100291.31;;;10.29;100.00
3444;BME280;1736;52.068;6.968;2022-11-15T06:45:55;100285.47;;;10.35;100.00
3444;BME280;1736;52.068;6.968;2022-11-15T06:48:21;100284.34;;;10.28;100.00
3444;BME280;1736;52.068;6.968;2022-11-15T06:50:51;100291.56;;;10.26;100.00
3444;BME280;1736;52.068;6.968;2022-11-15T06:53:18;100285.88;;;10.31;100.00
3444;BME280;1736;52.068;6.968;2022-11-15T06:55:45;100279.59;;;10.32;100.00
3444;BME280;1736;52.068;6.968;2022-11-15T06:58:11;100292.97;;;10.30;100.00
3444;BME280;1736;52.068;6.968;2022-11-15T07:00:38;100293.69;;;10.32;100.00
3444;BME280;1736;52.068;6.968;2022-11-15T07:03:04;100296.91;;;10.36;100.00
3444;BME280;1736;52.068;6.968;2022-11-15T07:05:31;100298.56;;;10.37;100.00
3444;BME280;1736;52.068;6.968;2022-11-15T07:07:59;100296.94;;;10.45;100.00
3444;BME280;1736;52.068;6.968;2022-11-15T07:10:27;100297.50;;;10.39;100.00
3444;BME280;1736;52.068;6.968;2022-11-15T07:12:54;100306.41;;;10.38;100.00
3444;BME280;1736;52.068;6.968;2022-11-15T07:15:22;100307.13;;;10.40;100.00
3444;BME280;1736;52.068;6.968;2022-11-15T07:17:49;100307.13;;;10.40;100.00
3444;BME280;1736;52.068;6.968;2022-11-15T07:20:16;100311.72;;;10.38;100.00
3444;BME280;1736;52.068;6.968;2022-11-15T07:22:43;100307.94;;;10.41;100.00
3444;BME280;1736;52.068;6.968;2022-11-15T07:25:12;100312.97;;;10.44;100.00
3444;BME280;1736;52.068;6.968;2022-11-15T07:27:38;100313.13;;;10.42;100.00
3444;BME280;1736;52.068;6.968;2022-11-15T07:30:06;100320.28;;;10.52;100.00
3444;BME280;1736;52.068;6.968;2022-11-15T07:32:32;100314.53;;;10.56;100.00
3444;BME280;1736;52.068;6.968;2022-11-15T07:35:00;100307.59;;;10.65;100.00
3444;BME280;1736;52.068;6.968;2022-11-15T07:37:27;100310.91;;;10.57;100.00
3444;BME280;1736;52.068;6.968;2022-11-15T07:39:53;100316.50;;;10.54;100.00
3444;BME280;1736;52.068;6.968;2022-11-15T07:42:21;100312.31;;;10.61;100.00
3444;BME280;1736;52.068;6.968;2022-11-15T07:45:06;100318.88;;;10.67;100.00
3444;BME280;1736;52.068;6.968;2022-11-15T07:47:32;100310.66;;;10.70;100.00
3444;BME280;1736;52.068;6.968;2022-11-15T07:49:59;100314.56;;;10.66;100.00
3444;BME280;1736;52.068;6.968;2022-11-15T07:52:25;100319.16;;;10.63;100.00
3444;BME280;1736;52.068;6.968;2022-11-15T07:54:52;100314.97;;;10.71;100.00
3444;BME280;1736;52.068;6.968;2022-11-15T07:57:18;100320.56;;;10.68;100.00
3444;BME280;1736;52.068;6.968;2022-11-15T07:59:46;100310.38;;;10.73;100.00
3444;BME280;1736;52.068;6.968;2022-11-15T08:02:12;100310.38;;;10.73;100.00
3444;BME280;1736;52.068;6.968;2022-11-15T08:04:41;100315.69;;;10.73;100.00
3444;BME280;1736;52.068;6.968;2022-11-15T08:07:09;100314.31;;;10.78;100.00
3444;BME280;1736;52.068;6.968;2022-11-15T08:09:35;100319.88;;;10.75;100.00
3444;BME280;1736;52.068;6.968;2022-11-15T08:12:02;100319.75;;;10.77;100.00
3444;BME280;1736;52.068;6.968;2022-11-15T08:14:28;100319.19;;;10.83;100.00
3444;BME280;1736;52.068;6.968;2022-11-15T08:16:56;100316.69;;;10.91;100.00
3444;BME280;1736;52.068;6.968;2022-11-15T08:19:23;100314.88;;;10.91;100.00
3444;BME280;1736;52.068;6.968;2022-11-15T08:21:50;100315.44;;;11.04;100.00
3444;BME280;1736;52.068;6.968;2022-11-15T08:24:16;100313.19;;;11.09;100.00
3444;BME280;1736;52.068;6.968;2022-11-15T08:26:43;100312.38;;;11.09;100.00
3444;BME280;1736;52.068;6.968;2022-11-15T08:29:09;100305.09;;;11.11;100.00
3444;BME280;1736;52.068;6.968;2022-11-15T08:31:36;100307.88;;;11.19;100.00
3444;BME280;1736;52.068;6.968;2022-11-15T08:34:05;100300.03;;;11.27;100.00
3444;BME280;1736;52.068;6.968;2022-11-15T08:36:32;100304.22;;;11.29;100.00
3444;BME280;1736;52.068;6.968;2022-11-15T08:38:58;100314.13;;;11.37;100.00
3444;BME280;1736;52.068;6.968;2022-11-15T08:41:27;100313.84;;;11.49;100.00
3444;BME280;1736;52.068;6.968;2022-11-15T08:43:56;100303.06;;;11.51;100.00
3444;BME280;1736;52.068;6.968;2022-11-15T08:46:22;100303.34;;;11.57;100.00
3444;BME280;1736;52.068;6.968;2022-11-15T08:48:49;100312.16;;;11.58;100.00
3444;BME280;1736;52.068;6.968;2022-11-15T08:51:17;100311.44;;;11.56;100.00
3444;BME280;1736;52.068;6.968;2022-11-15T08:53:43;100307.81;;;11.57;100.00
3444;BME280;1736;52.068;6.968;2022-11-15T08:56:11;100302.22;;;11.60;100.00
3444;BME280;1736;52.068;6.968;2022-11-15T08:58:39;100306.44;;;11.62;100.00
3444;BME280;1736;52.068;6.968;2022-11-15T09:01:06;100296.63;;;11.72;100.00
3444;BME280;1736;52.068;6.968;2022-11-15T09:03:39;100301.69;;;11.66;100.00
3444;BME280;1736;52.068;6.968;2022-11-15T09:06:06;100301.69;;;11.66;100.00
3444;BME280;1736;52.068;6.968;2022-11-15T09:08:34;100312.00;;;11.69;100.00
3444;BME280;1736;52.068;6.968;2022-11-15T09:11:03;100296.63;;;11.72;100.00
3444;BME280;1736;52.068;6.968;2022-11-15T09:13:31;100309.78;;;11.74;100.00
3444;BME280;1736;52.068;6.968;2022-11-15T09:15:58;100303.47;;;11.75;100.00
3444;BME280;1736;52.068;6.968;2022-11-15T09:18:25;100293.75;;;11.83;100.00
3444;BME280;1736;52.068;6.968;2022-11-15T09:20:55;100302.41;;;11.95;100.00
3444;BME280;1736;52.068;6.968;2022-11-15T09:23:23;100305.34;;;11.92;100.00
3444;BME280;1736;52.068;6.968;2022-11-15T09:25:51;100295.13;;;11.97;100.00
3444;BME280;1736;52.068;6.968;2022-11-15T09:28:18;100295.63;;;12.10;100.00
3444;BME280;1736;52.068;6.968;2022-11-15T09:30:45;100296.56;;;12.18;100.00
3444;BME280;1736;52.068;6.968;2022-11-15T09:33:12;100302.72;;;12.19;100.00
3444;BME280;1736;52.068;6.968;2022-11-15T09:35:39;100299.22;;;12.18;100.00
3444;BME280;1736;52.068;6.968;2022-11-15T09:38:06;100295.97;;;11.97;100.00
3444;BME280;1736;52.068;6.968;2022-11-15T09:40:36;100300.78;;;11.84;100.00
3444;BME280;1736;52.068;6.968;2022-11-15T09:43:32;100304.13;;;11.77;100.00
3444;BME280;1736;52.068;6.968;2022-11-15T09:46:09;100308.06;;;11.73;100.00
3444;BME280;1736;52.068;6.968;2022-11-15T09:48:56;100295.75;;;11.81;100.00
3444;BME280;1736;52.068;6.968;2022-11-15T09:51:27;100302.16;;;11.88;100.00
3444;BME280;1736;52.068;6.968;2022-11-15T09:53:59;100293.72;;;11.93;100.00
3444;BME280;1736;52.068;6.968;2022-11-15T09:56:29;100300.16;;;12.00;100.00
3444;BME280;1736;52.068;6.968;2022-11-15T09:59:04;100295.81;;;11.99;100.00
3444;BME280;1736;52.068;6.968;2022-11-15T10:01:37;100297.00;;;12.14;99.83
3444;BME280;1736;52.068;6.968;2022-11-15T10:04:05;100295.06;;;12.06;99.40
3444;BME280;1736;52.068;6.968;2022-11-15T10:06:32;100293.22;;;12.16;98.58
3444;BME280;1736;52.068;6.968;2022-11-15T10:09:06;100282.97;;;12.21;97.92
3444;BME280;1736;52.068;6.968;2022-11-15T10:11:35;100271.50;;;12.21;97.69
3444;BME280;1736;52.068;6.968;2022-11-15T10:14:09;100271.78;;;12.18;98.41
3444;BME280;1736;52.068;6.968;2022-11-15T10:17:11;100282.47;;;12.35;97.72
3444;BME280;1736;52.068;6.968;2022-11-15T10:19:49;100279.56;;;12.29;97.36
3444;BME280;1736;52.068;6.968;2022-11-15T10:22:25;100278.00;;;12.36;97.26
3444;BME280;1736;52.068;6.968;2022-11-15T10:25:04;100266.28;;;12.46;95.66
3444;BME280;1736;52.068;6.968;2022-11-15T10:27:36;100266.69;;;12.51;94.48
3444;BME280;1736;52.068;6.968;2022-11-15T10:30:11;100278.06;;;12.44;95.05
3444;BME280;1736;52.068;6.968;2022-11-15T10:32:38;100277.38;;;12.42;93.70
3444;BME280;1736;52.068;6.968;2022-11-15T10:35:20;100284.06;;;12.46;92.42
3444;BME280;1736;52.068;6.968;2022-11-15T10:37:47;100276.31;;;12.35;92.64
3444;BME280;1736;52.068;6.968;2022-11-15T10:40:19;100265.22;;;12.39;92.20
3444;BME280;1736;52.068;6.968;2022-11-15T10:42:46;100266.97;;;12.31;92.24
3444;BME280;1736;52.068;6.968;2022-11-15T10:45:26;100260.50;;;12.33;92.34
3444;BME280;1736;52.068;6.968;2022-11-15T10:47:54;100249.00;;;12.33;92.99
3444;BME280;1736;52.068;6.968;2022-11-15T10:50:42;100241.03;;;12.33;93.50
3444;BME280;1736;52.068;6.968;2022-11-15T10:53:16;100238.31;;;12.42;90.70
3444;BME280;1736;52.068;6.968;2022-11-15T10:55:47;100231.75;;;12.37;90.44
3444;BME280;1736;52.068;6.968;2022-11-15T10:58:21;100224.69;;;12.28;88.84
3444;BME280;1736;52.068;6.968;2022-11-15T11:00:52;100216.72;;;12.28;88.89
3444;BME280;1736;52.068;6.968;2022-11-15T11:03:28;100214.63;;;12.22;88.36
3444;BME280;1736;52.068;6.968;2022-11-15T11:06:07;100215.41;;;12.32;88.58
3444;BME280;1736;52.068;6.968;2022-11-15T11:08:34;100223.31;;;12.24;89.40
3444;BME280;1736;52.068;6.968;2022-11-15T11:11:02;100225.03;;;12.15;90.99
3444;BME280;1736;52.068;6.968;2022-11-15T11:13:33;100225.34;;;12.12;91.57
3444;BME280;1736;52.068;6.968;2022-11-15T11:16:21;100213.56;;;12.15;91.81
3444;BME280;1736;52.068;6.968;2022-11-15T11:18:57;100208.25;;;12.15;92.76
3444;BME280;1736;52.068;6.968;2022-11-15T11:21:38;100203.75;;;12.15;92.85
3444;BME280;1736;52.068;6.968;2022-11-15T11:24:14;100203.03;;;12.23;92.80
3444;BME280;1736;52.068;6.968;2022-11-15T11:26:48;100196.16;;;12.20;91.21
3444;BME280;1736;52.068;6.968;2022-11-15T11:29:30;100189.16;;;12.19;90.45
3444;BME280;1736;52.068;6.968;2022-11-15T11:32:12;100193.56;;;12.28;89.88
3444;BME280;1736;52.068;6.968;2022-11-15T11:34:50;100193.06;;;12.25;90.20
3444;BME280;1736;52.068;6.968;2022-11-15T11:37:27;100198.16;;;12.36;89.48
3444;BME280;1736;52.068;6.968;2022-11-15T11:40:05;100185.63;;;12.46;88.55
3444;BME280;1736;52.068;6.968;2022-11-15T11:42:39;100182.81;;;12.47;87.81
3444;BME280;1736;52.068;6.968;2022-11-15T11:45:15;100177.56;;;12.55;87.48
3444;BME280;1736;52.068;6.968;2022-11-15T11:47:51;100179.38;;;12.55;85.46
3444;BME280;1736;52.068;6.968;2022-11-15T11:50:25;100168.34;;;12.50;86.06
3444;BME280;1736;52.068;6.968;2022-11-15T11:52:56;100167.53;;;12.49;85.89
3444;BME280;1736;52.068;6.968;2022-11-15T11:55:26;100169.78;;;12.44;85.99
3444;BME280;1736;52.068;6.968;2022-11-15T11:58:01;100172.38;;;12.54;85.62
3444;BME280;1736;52.068;6.968;2022-11-15T12:00:31;100167.75;;;12.73;85.04
3444;BME280;1736;52.068;6.968;2022-11-15T12:03:09;100169.00;;;12.87;84.08
3444;BME280;1736;52.068;6.968;2022-11-15T12:05:40;100157.16;;;12.81;83.70
3444;BME280;1736;52.068;6.968;2022-11-15T12:08:23;100152.94;;;12.79;83.67
3444;BME280;1736;52.068;6.968;2022-11-15T12:11:02;100153.66;;;12.81;83.80
3444;BME280;1736;52.068;6.968;2022-11-15T12:13:31;100155.31;;;12.82;83.67
3444;BME280;1736;52.068;6.968;2022-11-15T12:16:06;100156.69;;;12.86;83.32
3444;BME280;1736;52.068;6.968;2022-11-15T12:18:37;100162.69;;;12.88;82.53
3444;BME280;1736;52.068;6.968;2022-11-15T12:21:14;100149.38;;;12.88;80.69
3444;BME280;1736;52.068;6.968;2022-11-15T12:23:45;100161.69;;;12.89;80.18
3444;BME280;1736;52.068;6.968;2022-11-15T12:26:16;100157.38;;;12.88;80.10
3444;BME280;1736;52.068;6.968;2022-11-15T12:28:48;100149.28;;;12.97;79.50
3444;BME280;1736;52.068;6.968;2022-11-15T12:31:20;100151.88;;;12.89;79.77
3444;BME280;1736;52.068;6.968;2022-11-15T12:33:55;100155.88;;;12.93;79.60
3444;BME280;1736;52.068;6.968;2022-11-15T12:36:35;100146.09;;;12.94;78.76
3444;BME280;1736;52.068;6.968;2022-11-15T12:39:03;100153.34;;;12.84;77.10
3444;BME280;1736;52.068;6.968;2022-11-15T12:41:31;100155.38;;;12.90;76.78
3444;BME280;1736;52.068;6.968;2022-11-15T12:43:59;100147.19;;;12.83;78.14
3444;BME280;1736;52.068;6.968;2022-11-15T12:47:00;100143.34;;;13.03;76.52
3444;BME280;1736;52.068;6.968;2022-11-15T12:49:45;100136.38;;;13.02;75.16
3444;BME280;1736;52.068;6.968;2022-11-15T12:52:12;100132.34;;;12.98;74.56
3444;BME280;1736;52.068;6.968;2022-11-15T12:55:30;100115.94;;;12.93;73.80
3444;BME280;1736;52.068;6.968;2022-11-15T12:58:26;100128.53;;;12.83;72.30
3444;BME280;1736;52.068;6.968;2022-11-15T13:00:53;100116.75;;;12.86;71.18
3444;BME280;1736;52.068;6.968;2022-11-15T13:03:25;100113.56;;;12.82;71.60
3444;BME280;1736;52.068;6.968;2022-11-15T13:05:58;100109.47;;;12.70;71.76
3444;BME280;1736;52.068;6.968;2022-11-15T13:08:47;100096.84;;;12.72;70.03
3444;BME280;1736;52.068;6.968;2022-11-15T13:11:43;100092.97;;;12.67;69.13
3444;BME280;1736;52.068;6.968;2022-11-15T13:14:39;100089.59;;;12.57;67.78
3444;BME280;1736;52.068;6.968;2022-11-15T13:17:17;100079.94;;;12.56;66.73
3444;BME280;1736;52.068;6.968;2022-11-15T13:19:53;100084.91;;;12.59;65.93
3444;BME280;1736;52.068;6.968;2022-11-15T13:22:23;100078.47;;;12.61;65.99
3444;BME280;1736;52.068;6.968;2022-11-15T13:25:15;100062.50;;;12.61;66.08
3444;BME280;1736;52.068;6.968;2022-11-15T13:27:44;100061.03;;;12.67;65.26